sensor_id;sensor_type;location;lat;lon;timestamp;P1;durP1;ratioP1;P2;durP2;ratioP2
38264;SDS011;24062;47.480;8.768;2023-04-12T00:01:43;2.00;;;1.13;;
38264;SDS011;24062;47.480;8.768;2023-04-12T00:04:10;1.67;;;0.90;;
38264;SDS011;24062;47.480;8.768;2023-04-12T00:06:41;1.80;;;1.40;;
38264;SDS011;24062;47.480;8.768;2023-04-12T00:09:12;2.57;;;0.90;;
38264;SDS011;24062;47.480;8.768;2023-04-12T00:11:40;1.87;;;1.10;;
38264;SDS011;24062;47.480;8.768;2023-04-12T00:14:07;1.80;;;0.83;;
38264;SDS011;24062;47.480;8.768;2023-04-12T00:16:34;2.10;;;1.30;;
38264;SDS011;24062;47.480;8.768;2023-04-12T00:19:02;2.10;;;1.10;;
38264;SDS011;24062;47.480;8.768;2023-04-12T00:21:29;2.10;;;1.00;;
38264;SDS011;24062;47.480;8.768;2023-04-12T00:23:58;2.13;;;0.93;;
38264;SDS011;24062;47.480;8.768;2023-04-12T00:26:25;1.50;;;1.00;;
38264;SDS011;24062;47.480;8.768;2023-04-12T00:28:52;3.13;;;1.20;;
38264;SDS011;24062;47.480;8.768;2023-04-12T00:31:19;2.90;;;0.90;;
38264;SDS011;24062;47.480;8.768;2023-04-12T00:33:46;2.60;;;1.30;;
38264;SDS011;24062;47.480;8.768;2023-04-12T00:36:13;1.60;;;0.90;;
38264;SDS011;24062;47.480;8.768;2023-04-12T00:38:39;2.50;;;1.00;;
38264;SDS011;24062;47.480;8.768;2023-04-12T00:41:08;1.77;;;1.00;;
38264;SDS011;24062;47.480;8.768;2023-04-12T00:43:35;4.43;;;0.97;;
38264;SDS011;24062;47.480;8.768;2023-04-12T00:46:02;3.13;;;1.00;;
38264;SDS011;24062;47.480;8.768;2023-04-12T00:48:29;1.40;;;0.83;;
38264;SDS011;24062;47.480;8.768;2023-04-12T00:50:56;1.93;;;0.80;;
38264;SDS011;24062;47.480;8.768;2023-04-12T00:53:23;1.60;;;0.70;;
38264;SDS011;24062;47.480;8.768;2023-04-12T00:55:50;1.90;;;0.80;;
38264;SDS011;24062;47.480;8.768;2023-04-12T00:58:20;1.40;;;0.70;;
38264;SDS011;24062;47.480;8.768;2023-04-12T01:00:49;1.40;;;0.80;;
38264;SDS011;24062;47.480;8.768;2023-04-12T01:03:17;1.67;;;0.80;;
38264;SDS011;24062;47.480;8.768;2023-04-12T01:05:49;2.23;;;0.80;;
38264;SDS011;24062;47.480;8.768;2023-04-12T01:08:30;1.73;;;0.70;;
38264;SDS011;24062;47.480;8.768;2023-04-12T01:11:05;1.30;;;0.70;;
38264;SDS011;24062;47.480;8.768;2023-04-12T01:13:38;2.00;;;1.00;;
38264;SDS011;24062;47.480;8.768;2023-04-12T01:16:12;3.67;;;0.80;;
38264;SDS011;24062;47.480;8.768;2023-04-12T01:18:44;2.03;;;0.70;;
38264;SDS011;24062;47.480;8.768;2023-04-12T01:21:17;1.40;;;0.80;;
38264;SDS011;24062;47.480;8.768;2023-04-12T01:23:52;1.30;;;0.70;;
38264;SDS011;24062;47.480;8.768;2023-04-12T01:26:33;1.60;;;0.90;;
38264;SDS011;24062;47.480;8.768;2023-04-12T01:29:08;1.33;;;0.70;;
38264;SDS011;24062;47.480;8.768;2023-04-12T01:31:38;1.87;;;0.70;;
38264;SDS011;24062;47.480;8.768;2023-04-12T01:34:07;1.93;;;0.87;;
38264;SDS011;24062;47.480;8.768;2023-04-12T01:36:37;2.00;;;0.93;;
38264;SDS011;24062;47.480;8.768;2023-04-12T01:39:04;1.80;;;0.93;;
38264;SDS011;24062;47.480;8.768;2023-04-12T01:41:32;2.93;;;0.97;;
38264;SDS011;24062;47.480;8.768;2023-04-12T01:44:05;2.47;;;0.87;;
38264;SDS011;24062;47.480;8.768;2023-04-12T01:46:34;1.90;;;1.00;;
38264;SDS011;24062;47.480;8.768;2023-04-12T01:49:02;1.33;;;0.73;;
38264;SDS011;24062;47.480;8.768;2023-04-12T01:51:32;2.50;;;0.90;;
38264;SDS011;24062;47.480;8.768;2023-04-12T01:54:05;2.43;;;1.00;;
38264;SDS011;24062;47.480;8.768;2023-04-12T01:56:36;2.67;;;1.00;;
38264;SDS011;24062;47.480;8.768;2023-04-12T01:59:05;1.67;;;0.80;;
38264;SDS011;24062;47.480;8.768;2023-04-12T02:01:34;1.50;;;0.80;;
38264;SDS011;24062;47.480;8.768;2023-04-12T02:04:02;3.00;;;0.70;;
38264;SDS011;24062;47.480;8.768;2023-04-12T02:06:31;2.03;;;1.03;;
38264;SDS011;24062;47.480;8.768;2023-04-12T02:09:00;1.10;;;0.60;;
38264;SDS011;24062;47.480;8.768;2023-04-12T02:11:29;1.40;;;0.70;;
38264;SDS011;24062;47.480;8.768;2023-04-12T02:13:56;2.37;;;1.20;;
38264;SDS011;24062;47.480;8.768;2023-04-12T02:16:24;2.13;;;1.00;;
38264;SDS011;24062;47.480;8.768;2023-04-12T02:18:53;1.47;;;0.90;;
38264;SDS011;24062;47.480;8.768;2023-04-12T02:21:21;1.40;;;0.80;;
38264;SDS011;24062;47.480;8.768;2023-04-12T02:23:48;4.83;;;0.80;;
38264;SDS011;24062;47.480;8.768;2023-04-12T02:26:15;2.40;;;1.00;;
38264;SDS011;24062;47.480;8.768;2023-04-12T02:28:43;1.50;;;1.00;;
38264;SDS011;24062;47.480;8.768;2023-04-12T02:31:10;1.77;;;1.23;;
38264;SDS011;24062;47.480;8.768;2023-04-12T02:33:38;1.60;;;0.90;;
38264;SDS011;24062;47.480;8.768;2023-04-12T02:36:07;1.67;;;1.00;;
38264;SDS011;24062;47.480;8.768;2023-04-12T02:38:35;1.77;;;1.30;;
38264;SDS011;24062;47.480;8.768;2023-04-12T02:41:02;2.53;;;1.30;;
38264;SDS011;24062;47.480;8.768;2023-04-12T02:43:29;1.80;;;0.93;;
38264;SDS011;24062;47.480;8.768;2023-04-12T02:45:57;1.90;;;1.20;;
38264;SDS011;24062;47.480;8.768;2023-04-12T02:48:24;1.70;;;1.23;;
38264;SDS011;24062;47.480;8.768;2023-04-12T02:50:53;1.60;;;1.20;;
38264;SDS011;24062;47.480;8.768;2023-04-12T02:53:20;1.80;;;1.10;;
38264;SDS011;24062;47.480;8.768;2023-04-12T02:55:46;3.10;;;1.60;;
38264;SDS011;24062;47.480;8.768;2023-04-12T02:58:13;2.27;;;1.00;;
38264;SDS011;24062;47.480;8.768;2023-04-12T03:00:40;6.90;;;1.20;;
38264;SDS011;24062;47.480;8.768;2023-04-12T03:03:07;2.70;;;1.30;;
38264;SDS011;24062;47.480;8.768;2023-04-12T03:05:34;2.40;;;1.47;;
38264;SDS011;24062;47.480;8.768;2023-04-12T03:08:03;2.60;;;1.23;;
38264;SDS011;24062;47.480;8.768;2023-04-12T03:10:30;2.10;;;1.43;;
38264;SDS011;24062;47.480;8.768;2023-04-12T03:12:57;2.13;;;1.33;;
38264;SDS011;24062;47.480;8.768;2023-04-12T03:15:24;3.07;;;1.40;;
38264;SDS011;24062;47.480;8.768;2023-04-12T03:17:52;1.53;;;1.00;;
38264;SDS011;24062;47.480;8.768;2023-04-12T03:20:19;1.90;;;1.30;;
38264;SDS011;24062;47.480;8.768;2023-04-12T03:22:48;1.60;;;0.97;;
38264;SDS011;24062;47.480;8.768;2023-04-12T03:25:16;2.00;;;1.50;;
38264;SDS011;24062;47.480;8.768;2023-04-12T03:27:43;2.00;;;1.33;;
38264;SDS011;24062;47.480;8.768;2023-04-12T03:30:11;3.93;;;1.40;;
38264;SDS011;24062;47.480;8.768;2023-04-12T03:32:38;2.07;;;1.50;;
38264;SDS011;24062;47.480;8.768;2023-04-12T03:35:06;2.17;;;1.27;;
38264;SDS011;24062;47.480;8.768;2023-04-12T03:37:34;5.33;;;1.63;;
38264;SDS011;24062;47.480;8.768;2023-04-12T03:40:01;2.00;;;1.33;;
38264;SDS011;24062;47.480;8.768;2023-04-12T03:42:31;1.70;;;1.10;;
38264;SDS011;24062;47.480;8.768;2023-04-12T03:44:58;2.37;;;1.20;;
38264;SDS011;24062;47.480;8.768;2023-04-12T03:47:25;1.70;;;1.20;;
38264;SDS011;24062;47.480;8.768;2023-04-12T03:49:53;1.40;;;0.90;;
38264;SDS011;24062;47.480;8.768;2023-04-12T03:52:20;1.60;;;0.90;;
38264;SDS011;24062;47.480;8.768;2023-04-12T03:54:47;3.03;;;1.30;;
38264;SDS011;24062;47.480;8.768;2023-04-12T03:57:14;2.17;;;0.90;;
38264;SDS011;24062;47.480;8.768;2023-04-12T03:59:43;2.57;;;0.90;;
38264;SDS011;24062;47.480;8.768;2023-04-12T04:02:09;1.70;;;1.13;;
38264;SDS011;24062;47.480;8.768;2023-04-12T04:04:36;1.40;;;0.73;;
38264;SDS011;24062;47.480;8.768;2023-04-12T04:07:03;1.20;;;0.70;;
38264;SDS011;24062;47.480;8.768;2023-04-12T04:09:31;1.50;;;0.93;;
38264;SDS011;24062;47.480;8.768;2023-04-12T04:11:59;1.73;;;0.90;;
38264;SDS011;24062;47.480;8.768;2023-04-12T04:14:26;1.80;;;0.90;;
38264;SDS011;24062;47.480;8.768;2023-04-12T04:16:54;2.30;;;1.17;;
38264;SDS011;24062;47.480;8.768;2023-04-12T04:19:21;3.00;;;1.10;;
38264;SDS011;24062;47.480;8.768;2023-04-12T04:21:48;2.33;;;1.60;;
38264;SDS011;24062;47.480;8.768;2023-04-12T04:24:15;2.70;;;1.27;;
38264;SDS011;24062;47.480;8.768;2023-04-12T04:26:43;1.90;;;1.17;;
38264;SDS011;24062;47.480;8.768;2023-04-12T04:29:10;2.13;;;1.13;;
38264;SDS011;24062;47.480;8.768;2023-04-12T04:31:37;1.73;;;1.00;;
38264;SDS011;24062;47.480;8.768;2023-04-12T04:34:05;1.40;;;0.60;;
38264;SDS011;24062;47.480;8.768;2023-04-12T04:36:33;1.30;;;0.90;;
38264;SDS011;24062;47.480;8.768;2023-04-12T04:39:01;1.90;;;1.20;;
38264;SDS011;24062;47.480;8.768;2023-04-12T04:41:29;1.30;;;0.80;;
38264;SDS011;24062;47.480;8.768;2023-04-12T04:43:58;1.40;;;0.80;;
38264;SDS011;24062;47.480;8.768;2023-04-12T04:46:25;1.90;;;0.90;;
38264;SDS011;24062;47.480;8.768;2023-04-12T04:48:55;5.77;;;0.97;;
38264;SDS011;24062;47.480;8.768;2023-04-12T04:51:24;3.43;;;1.07;;
38264;SDS011;24062;47.480;8.768;2023-04-12T04:53:51;1.80;;;1.03;;
38264;SDS011;24062;47.480;8.768;2023-04-12T04:56:18;1.30;;;0.70;;
38264;SDS011;24062;47.480;8.768;2023-04-12T04:58:47;2.80;;;1.10;;
38264;SDS011;24062;47.480;8.768;2023-04-12T05:01:14;2.60;;;1.00;;
38264;SDS011;24062;47.480;8.768;2023-04-12T05:03:41;1.83;;;0.80;;
38264;SDS011;24062;47.480;8.768;2023-04-12T05:06:09;2.23;;;1.20;;
38264;SDS011;24062;47.480;8.768;2023-04-12T05:08:38;1.90;;;1.07;;
38264;SDS011;24062;47.480;8.768;2023-04-12T05:11:05;6.17;;;1.83;;
38264;SDS011;24062;47.480;8.768;2023-04-12T05:13:32;1.63;;;1.10;;
38264;SDS011;24062;47.480;8.768;2023-04-12T05:15:59;1.80;;;1.00;;
38264;SDS011;24062;47.480;8.768;2023-04-12T05:18:26;1.73;;;1.10;;
38264;SDS011;24062;47.480;8.768;2023-04-12T05:20:54;1.47;;;0.97;;
38264;SDS011;24062;47.480;8.768;2023-04-12T05:23:20;3.60;;;1.40;;
38264;SDS011;24062;47.480;8.768;2023-04-12T05:25:49;2.00;;;1.40;;
38264;SDS011;24062;47.480;8.768;2023-04-12T05:28:16;1.70;;;1.17;;
38264;SDS011;24062;47.480;8.768;2023-04-12T05:30:43;2.27;;;1.90;;
38264;SDS011;24062;47.480;8.768;2023-04-12T05:33:10;2.43;;;1.50;;
38264;SDS011;24062;47.480;8.768;2023-04-12T05:35:37;2.77;;;2.07;;
38264;SDS011;24062;47.480;8.768;2023-04-12T05:38:04;3.17;;;2.97;;
38264;SDS011;24062;47.480;8.768;2023-04-12T05:40:31;2.40;;;2.20;;
38264;SDS011;24062;47.480;8.768;2023-04-12T05:43:01;2.77;;;1.50;;
38264;SDS011;24062;47.480;8.768;2023-04-12T05:45:28;3.20;;;1.50;;
38264;SDS011;24062;47.480;8.768;2023-04-12T05:47:55;2.57;;;1.37;;
38264;SDS011;24062;47.480;8.768;2023-04-12T05:50:22;3.10;;;1.20;;
38264;SDS011;24062;47.480;8.768;2023-04-12T05:52:49;2.00;;;1.10;;
38264;SDS011;24062;47.480;8.768;2023-04-12T05:55:17;2.90;;;0.87;;
38264;SDS011;24062;47.480;8.768;2023-04-12T05:57:45;1.80;;;1.40;;
38264;SDS011;24062;47.480;8.768;2023-04-12T06:00:14;1.87;;;0.83;;
38264;SDS011;24062;47.480;8.768;2023-04-12T06:02:42;5.20;;;0.90;;
38264;SDS011;24062;47.480;8.768;2023-04-12T06:05:09;1.60;;;0.80;;
38264;SDS011;24062;47.480;8.768;2023-04-12T06:07:37;1.40;;;0.80;;
38264;SDS011;24062;47.480;8.768;2023-04-12T06:10:06;1.60;;;1.17;;
38264;SDS011;24062;47.480;8.768;2023-04-12T06:12:35;1.50;;;1.13;;
38264;SDS011;24062;47.480;8.768;2023-04-12T06:15:02;3.70;;;1.63;;
38264;SDS011;24062;47.480;8.768;2023-04-12T06:17:30;1.70;;;1.20;;
38264;SDS011;24062;47.480;8.768;2023-04-12T06:19:57;2.50;;;1.20;;
38264;SDS011;24062;47.480;8.768;2023-04-12T06:22:24;2.33;;;1.47;;
38264;SDS011;24062;47.480;8.768;2023-04-12T06:24:51;2.07;;;0.80;;
38264;SDS011;24062;47.480;8.768;2023-04-12T06:27:18;2.03;;;1.20;;
38264;SDS011;24062;47.480;8.768;2023-04-12T06:29:46;1.70;;;0.93;;
38264;SDS011;24062;47.480;8.768;2023-04-12T06:32:13;1.30;;;0.77;;
38264;SDS011;24062;47.480;8.768;2023-04-12T06:34:42;1.80;;;1.00;;
38264;SDS011;24062;47.480;8.768;2023-04-12T06:37:09;1.97;;;0.97;;
38264;SDS011;24062;47.480;8.768;2023-04-12T06:39:36;5.97;;;3.30;;
38264;SDS011;24062;47.480;8.768;2023-04-12T06:42:03;6.33;;;5.83;;
38264;SDS011;24062;47.480;8.768;2023-04-12T06:44:29;8.13;;;6.97;;
38264;SDS011;24062;47.480;8.768;2023-04-12T06:46:57;9.67;;;7.20;;
38264;SDS011;24062;47.480;8.768;2023-04-12T06:49:24;2.97;;;2.67;;
38264;SDS011;24062;47.480;8.768;2023-04-12T06:51:52;2.73;;;2.30;;
38264;SDS011;24062;47.480;8.768;2023-04-12T06:54:20;3.90;;;2.20;;
38264;SDS011;24062;47.480;8.768;2023-04-12T06:56:48;3.60;;;1.73;;
38264;SDS011;24062;47.480;8.768;2023-04-12T06:59:15;3.07;;;1.60;;
38264;SDS011;24062;47.480;8.768;2023-04-12T07:01:42;2.80;;;2.40;;
38264;SDS011;24062;47.480;8.768;2023-04-12T07:04:09;2.57;;;1.50;;
38264;SDS011;24062;47.480;8.768;2023-04-12T07:06:36;2.40;;;1.87;;
38264;SDS011;24062;47.480;8.768;2023-04-12T07:09:05;2.07;;;1.57;;
38264;SDS011;24062;47.480;8.768;2023-04-12T07:11:31;4.73;;;2.03;;
38264;SDS011;24062;47.480;8.768;2023-04-12T07:13:58;5.83;;;1.97;;
38264;SDS011;24062;47.480;8.768;2023-04-12T07:16:26;2.83;;;1.60;;
38264;SDS011;24062;47.480;8.768;2023-04-12T07:18:54;2.30;;;1.70;;
38264;SDS011;24062;47.480;8.768;2023-04-12T07:21:21;3.43;;;1.90;;
38264;SDS011;24062;47.480;8.768;2023-04-12T07:23:48;2.73;;;1.80;;
38264;SDS011;24062;47.480;8.768;2023-04-12T07:26:17;1.70;;;1.20;;
38264;SDS011;24062;47.480;8.768;2023-04-12T07:28:45;6.33;;;1.60;;
38264;SDS011;24062;47.480;8.768;2023-04-12T07:31:12;2.53;;;1.40;;
38264;SDS011;24062;47.480;8.768;2023-04-12T07:33:39;5.27;;;1.90;;
38264;SDS011;24062;47.480;8.768;2023-04-12T07:36:07;2.73;;;2.23;;
38264;SDS011;24062;47.480;8.768;2023-04-12T07:38:34;3.30;;;1.87;;
38264;SDS011;24062;47.480;8.768;2023-04-12T07:41:01;3.43;;;2.00;;
38264;SDS011;24062;47.480;8.768;2023-04-12T07:43:29;2.50;;;1.80;;
38264;SDS011;24062;47.480;8.768;2023-04-12T07:45:56;3.53;;;1.90;;
38264;SDS011;24062;47.480;8.768;2023-04-12T07:48:23;1.93;;;1.50;;
38264;SDS011;24062;47.480;8.768;2023-04-12T07:50:50;3.90;;;1.40;;
38264;SDS011;24062;47.480;8.768;2023-04-12T07:53:18;2.30;;;1.70;;
38264;SDS011;24062;47.480;8.768;2023-04-12T07:55:46;2.50;;;1.50;;
38264;SDS011;24062;47.480;8.768;2023-04-12T07:58:13;2.40;;;1.60;;
38264;SDS011;24062;47.480;8.768;2023-04-12T08:00:42;2.40;;;1.53;;
38264;SDS011;24062;47.480;8.768;2023-04-12T08:03:10;3.63;;;1.33;;
38264;SDS011;24062;47.480;8.768;2023-04-12T08:05:37;2.40;;;1.90;;
38264;SDS011;24062;47.480;8.768;2023-04-12T08:08:05;2.00;;;1.47;;
38264;SDS011;24062;47.480;8.768;2023-04-12T08:10:33;2.90;;;1.63;;
38264;SDS011;24062;47.480;8.768;2023-04-12T08:13:01;2.50;;;1.43;;
38264;SDS011;24062;47.480;8.768;2023-04-12T08:15:28;1.90;;;1.33;;
38264;SDS011;24062;47.480;8.768;2023-04-12T08:17:56;1.43;;;1.00;;
38264;SDS011;24062;47.480;8.768;2023-04-12T08:20:23;6.33;;;1.57;;
38264;SDS011;24062;47.480;8.768;2023-04-12T08:22:50;2.03;;;1.20;;
38264;SDS011;24062;47.480;8.768;2023-04-12T08:25:18;1.60;;;1.00;;
38264;SDS011;24062;47.480;8.768;2023-04-12T08:27:47;3.73;;;1.47;;
38264;SDS011;24062;47.480;8.768;2023-04-12T08:30:15;2.00;;;1.80;;
38264;SDS011;24062;47.480;8.768;2023-04-12T08:32:43;1.70;;;1.20;;
38264;SDS011;24062;47.480;8.768;2023-04-12T08:35:11;2.43;;;1.53;;
38264;SDS011;24062;47.480;8.768;2023-04-12T08:37:39;2.73;;;1.20;;
38264;SDS011;24062;47.480;8.768;2023-04-12T08:40:06;5.77;;;1.70;;
38264;SDS011;24062;47.480;8.768;2023-04-12T08:42:34;2.83;;;1.80;;
38264;SDS011;24062;47.480;8.768;2023-04-12T08:45:03;5.40;;;2.13;;
38264;SDS011;24062;47.480;8.768;2023-04-12T08:47:31;3.10;;;1.00;;
38264;SDS011;24062;47.480;8.768;2023-04-12T08:49:59;1.80;;;1.30;;
38264;SDS011;24062;47.480;8.768;2023-04-12T08:52:29;3.53;;;1.47;;
38264;SDS011;24062;47.480;8.768;2023-04-12T08:55:00;3.90;;;2.03;;
38264;SDS011;24062;47.480;8.768;2023-04-12T08:57:27;3.03;;;1.00;;
38264;SDS011;24062;47.480;8.768;2023-04-12T08:59:55;1.77;;;1.10;;
38264;SDS011;24062;47.480;8.768;2023-04-12T09:02:24;1.50;;;0.70;;
38264;SDS011;24062;47.480;8.768;2023-04-12T09:04:51;2.40;;;1.10;;
38264;SDS011;24062;47.480;8.768;2023-04-12T09:07:18;1.90;;;0.90;;
38264;SDS011;24062;47.480;8.768;2023-04-12T09:09:48;1.77;;;0.80;;
38264;SDS011;24062;47.480;8.768;2023-04-12T09:12:16;2.63;;;0.90;;
38264;SDS011;24062;47.480;8.768;2023-04-12T09:14:44;2.20;;;0.80;;
38264;SDS011;24062;47.480;8.768;2023-04-12T09:17:21;1.70;;;1.00;;
38264;SDS011;24062;47.480;8.768;2023-04-12T09:19:49;1.73;;;0.80;;
38264;SDS011;24062;47.480;8.768;2023-04-12T09:22:16;1.90;;;1.10;;
38264;SDS011;24062;47.480;8.768;2023-04-12T09:24:47;3.63;;;1.00;;
38264;SDS011;24062;47.480;8.768;2023-04-12T09:27:17;3.07;;;1.27;;
38264;SDS011;24062;47.480;8.768;2023-04-12T09:29:46;3.20;;;1.90;;
38264;SDS011;24062;47.480;8.768;2023-04-12T09:32:23;1.90;;;0.87;;
38264;SDS011;24062;47.480;8.768;2023-04-12T09:34:54;3.03;;;1.40;;
38264;SDS011;24062;47.480;8.768;2023-04-12T09:37:22;3.27;;;1.47;;
38264;SDS011;24062;47.480;8.768;2023-04-12T09:39:59;2.33;;;1.33;;
38264;SDS011;24062;47.480;8.768;2023-04-12T09:42:27;2.30;;;1.27;;
38264;SDS011;24062;47.480;8.768;2023-04-12T09:44:55;2.50;;;1.30;;
38264;SDS011;24062;47.480;8.768;2023-04-12T09:47:23;1.97;;;1.30;;
38264;SDS011;24062;47.480;8.768;2023-04-12T09:50:03;3.20;;;1.77;;
38264;SDS011;24062;47.480;8.768;2023-04-12T09:52:34;2.47;;;1.20;;
38264;SDS011;24062;47.480;8.768;2023-04-12T09:55:04;2.63;;;1.20;;
38264;SDS011;24062;47.480;8.768;2023-04-12T09:57:35;1.40;;;1.00;;
38264;SDS011;24062;47.480;8.768;2023-04-12T10:00:04;2.40;;;1.53;;
38264;SDS011;24062;47.480;8.768;2023-04-12T10:02:36;2.87;;;1.30;;
38264;SDS011;24062;47.480;8.768;2023-04-12T10:05:05;2.00;;;1.40;;
38264;SDS011;24062;47.480;8.768;2023-04-12T10:07:34;1.77;;;1.20;;
38264;SDS011;24062;47.480;8.768;2023-04-12T10:10:01;3.03;;;1.30;;
38264;SDS011;24062;47.480;8.768;2023-04-12T10:12:32;3.50;;;1.60;;
38264;SDS011;24062;47.480;8.768;2023-04-12T10:15:02;2.73;;;1.33;;
38264;SDS011;24062;47.480;8.768;2023-04-12T10:17:31;6.07;;;1.23;;
38264;SDS011;24062;47.480;8.768;2023-04-12T10:19:59;2.60;;;1.70;;
38264;SDS011;24062;47.480;8.768;2023-04-12T10:22:28;2.97;;;1.50;;
38264;SDS011;24062;47.480;8.768;2023-04-12T10:24:55;1.90;;;0.80;;
38264;SDS011;24062;47.480;8.768;2023-04-12T10:27:26;2.83;;;1.60;;
38264;SDS011;24062;47.480;8.768;2023-04-12T10:29:54;3.07;;;1.30;;
38264;SDS011;24062;47.480;8.768;2023-04-12T10:32:46;2.37;;;1.30;;
38264;SDS011;24062;47.480;8.768;2023-04-12T10:35:14;4.63;;;1.63;;
38264;SDS011;24062;47.480;8.768;2023-04-12T10:40:27;3.13;;;2.30;;
38264;SDS011;24062;47.480;8.768;2023-04-12T10:45:52;3.27;;;1.87;;
38264;SDS011;24062;47.480;8.768;2023-04-12T10:48:30;5.13;;;2.63;;
38264;SDS011;24062;47.480;8.768;2023-04-12T10:51:17;7.57;;;2.43;;
38264;SDS011;24062;47.480;8.768;2023-04-12T10:53:47;5.10;;;3.83;;
38264;SDS011;24062;47.480;8.768;2023-04-12T10:56:35;3.97;;;2.07;;
38264;SDS011;24062;47.480;8.768;2023-04-12T10:59:03;2.80;;;1.47;;
38264;SDS011;24062;47.480;8.768;2023-04-12T11:01:32;6.50;;;1.70;;
38264;SDS011;24062;47.480;8.768;2023-04-12T11:06:56;3.60;;;1.70;;
38264;SDS011;24062;47.480;8.768;2023-04-12T11:09:27;2.40;;;1.20;;
38264;SDS011;24062;47.480;8.768;2023-04-12T11:11:56;3.40;;;1.63;;
38264;SDS011;24062;47.480;8.768;2023-04-12T11:14:26;3.80;;;1.40;;
38264;SDS011;24062;47.480;8.768;2023-04-12T11:19:59;2.77;;;1.17;;
38264;SDS011;24062;47.480;8.768;2023-04-12T11:22:28;2.23;;;1.03;;
38264;SDS011;24062;47.480;8.768;2023-04-12T11:24:56;2.00;;;1.30;;
38264;SDS011;24062;47.480;8.768;2023-04-12T11:27:25;4.13;;;1.60;;
38264;SDS011;24062;47.480;8.768;2023-04-12T11:29:53;3.83;;;1.27;;
38264;SDS011;24062;47.480;8.768;2023-04-12T11:32:22;2.63;;;1.40;;
38264;SDS011;24062;47.480;8.768;2023-04-12T11:34:51;4.00;;;1.23;;
38264;SDS011;24062;47.480;8.768;2023-04-12T11:37:20;3.73;;;1.00;;
38264;SDS011;24062;47.480;8.768;2023-04-12T11:39:49;2.13;;;1.20;;
38264;SDS011;24062;47.480;8.768;2023-04-12T11:42:18;3.03;;;0.90;;
38264;SDS011;24062;47.480;8.768;2023-04-12T11:44:46;3.50;;;1.27;;
38264;SDS011;24062;47.480;8.768;2023-04-12T11:47:14;2.60;;;1.20;;
38264;SDS011;24062;47.480;8.768;2023-04-12T11:49:43;4.33;;;1.30;;
38264;SDS011;24062;47.480;8.768;2023-04-12T11:52:12;4.00;;;1.20;;
38264;SDS011;24062;47.480;8.768;2023-04-12T11:54:41;1.53;;;0.97;;
38264;SDS011;24062;47.480;8.768;2023-04-12T11:57:12;2.70;;;1.03;;
38264;SDS011;24062;47.480;8.768;2023-04-12T11:59:42;2.47;;;0.80;;
38264;SDS011;24062;47.480;8.768;2023-04-12T12:02:10;2.93;;;1.20;;
38264;SDS011;24062;47.480;8.768;2023-04-12T12:04:39;2.43;;;1.20;;
38264;SDS011;24062;47.480;8.768;2023-04-12T12:07:09;2.03;;;0.90;;
38264;SDS011;24062;47.480;8.768;2023-04-12T12:09:37;3.27;;;1.00;;
38264;SDS011;24062;47.480;8.768;2023-04-12T12:12:05;2.40;;;1.13;;
38264;SDS011;24062;47.480;8.768;2023-04-12T12:14:33;2.80;;;1.20;;
38264;SDS011;24062;47.480;8.768;2023-04-12T12:17:01;3.00;;;1.20;;
38264;SDS011;24062;47.480;8.768;2023-04-12T12:19:35;1.77;;;1.13;;
38264;SDS011;24062;47.480;8.768;2023-04-12T12:22:15;2.80;;;0.90;;
38264;SDS011;24062;47.480;8.768;2023-04-12T12:24:48;1.63;;;0.83;;
38264;SDS011;24062;47.480;8.768;2023-04-12T12:27:16;3.13;;;1.10;;
38264;SDS011;24062;47.480;8.768;2023-04-12T12:29:47;3.67;;;1.07;;
38264;SDS011;24062;47.480;8.768;2023-04-12T12:32:15;2.60;;;0.90;;
38264;SDS011;24062;47.480;8.768;2023-04-12T12:34:48;3.03;;;1.07;;
38264;SDS011;24062;47.480;8.768;2023-04-12T12:37:20;2.30;;;1.10;;
38264;SDS011;24062;47.480;8.768;2023-04-12T12:40:01;3.47;;;1.10;;
38264;SDS011;24062;47.480;8.768;2023-04-12T12:42:35;1.87;;;0.90;;
38264;SDS011;24062;47.480;8.768;2023-04-12T12:45:09;2.23;;;1.00;;
38264;SDS011;24062;47.480;8.768;2023-04-12T12:47:44;2.90;;;1.10;;
38264;SDS011;24062;47.480;8.768;2023-04-12T12:50:11;1.70;;;1.00;;
38264;SDS011;24062;47.480;8.768;2023-04-12T12:52:42;3.10;;;0.90;;
38264;SDS011;24062;47.480;8.768;2023-04-12T12:55:10;1.60;;;0.77;;
38264;SDS011;24062;47.480;8.768;2023-04-12T12:57:37;2.33;;;0.93;;
38264;SDS011;24062;47.480;8.768;2023-04-12T13:00:05;6.13;;;1.40;;
38264;SDS011;24062;47.480;8.768;2023-04-12T13:02:34;4.00;;;1.27;;
38264;SDS011;24062;47.480;8.768;2023-04-12T13:05:01;9.27;;;1.27;;
38264;SDS011;24062;47.480;8.768;2023-04-12T13:07:29;2.80;;;1.00;;
38264;SDS011;24062;47.480;8.768;2023-04-12T13:09:57;5.53;;;1.27;;
38264;SDS011;24062;47.480;8.768;2023-04-12T13:12:24;4.43;;;1.53;;
38264;SDS011;24062;47.480;8.768;2023-04-12T13:14:51;4.07;;;1.23;;
38264;SDS011;24062;47.480;8.768;2023-04-12T13:17:18;2.40;;;1.40;;
38264;SDS011;24062;47.480;8.768;2023-04-12T13:19:45;1.50;;;0.80;;
38264;SDS011;24062;47.480;8.768;2023-04-12T13:22:13;2.20;;;0.83;;
38264;SDS011;24062;47.480;8.768;2023-04-12T13:24:41;2.27;;;0.90;;
38264;SDS011;24062;47.480;8.768;2023-04-12T13:27:09;1.40;;;0.70;;
38264;SDS011;24062;47.480;8.768;2023-04-12T13:29:37;2.90;;;1.00;;
38264;SDS011;24062;47.480;8.768;2023-04-12T13:32:04;3.73;;;1.23;;
38264;SDS011;24062;47.480;8.768;2023-04-12T13:34:31;2.13;;;0.80;;
38264;SDS011;24062;47.480;8.768;2023-04-12T13:36:59;2.80;;;1.00;;
38264;SDS011;24062;47.480;8.768;2023-04-12T13:39:26;1.47;;;0.60;;
38264;SDS011;24062;47.480;8.768;2023-04-12T13:41:53;3.10;;;0.80;;
38264;SDS011;24062;47.480;8.768;2023-04-12T13:44:21;1.20;;;0.50;;
38264;SDS011;24062;47.480;8.768;2023-04-12T13:46:48;1.70;;;0.73;;
38264;SDS011;24062;47.480;8.768;2023-04-12T13:49:15;3.73;;;0.80;;
38264;SDS011;24062;47.480;8.768;2023-04-12T13:51:42;1.17;;;0.50;;
38264;SDS011;24062;47.480;8.768;2023-04-12T13:54:09;6.80;;;0.93;;
38264;SDS011;24062;47.480;8.768;2023-04-12T13:56:39;2.30;;;0.50;;
38264;SDS011;24062;47.480;8.768;2023-04-12T13:59:06;3.17;;;0.90;;
38264;SDS011;24062;47.480;8.768;2023-04-12T14:01:35;1.40;;;0.60;;
38264;SDS011;24062;47.480;8.768;2023-04-12T14:04:02;1.30;;;0.50;;
38264;SDS011;24062;47.480;8.768;2023-04-12T14:06:29;3.37;;;0.63;;
38264;SDS011;24062;47.480;8.768;2023-04-12T14:08:56;1.30;;;0.57;;
38264;SDS011;24062;47.480;8.768;2023-04-12T14:11:23;1.20;;;0.60;;
38264;SDS011;24062;47.480;8.768;2023-04-12T14:13:50;1.30;;;0.57;;
38264;SDS011;24062;47.480;8.768;2023-04-12T14:16:18;1.90;;;0.60;;
38264;SDS011;24062;47.480;8.768;2023-04-12T14:18:46;1.57;;;0.50;;
38264;SDS011;24062;47.480;8.768;2023-04-12T14:21:13;1.30;;;0.50;;
38264;SDS011;24062;47.480;8.768;2023-04-12T14:23:40;1.77;;;0.63;;
38264;SDS011;24062;47.480;8.768;2023-04-12T14:26:10;2.37;;;0.60;;
38264;SDS011;24062;47.480;8.768;2023-04-12T14:28:39;1.27;;;0.50;;
38264;SDS011;24062;47.480;8.768;2023-04-12T14:31:07;1.70;;;0.70;;
38264;SDS011;24062;47.480;8.768;2023-04-12T14:33:35;1.73;;;0.60;;
38264;SDS011;24062;47.480;8.768;2023-04-12T14:36:03;2.73;;;0.60;;
38264;SDS011;24062;47.480;8.768;2023-04-12T14:38:32;2.73;;;0.50;;
38264;SDS011;24062;47.480;8.768;2023-04-12T14:40:59;1.30;;;0.60;;
38264;SDS011;24062;47.480;8.768;2023-04-12T14:43:26;2.10;;;0.60;;
38264;SDS011;24062;47.480;8.768;2023-04-12T14:45:53;2.13;;;0.73;;
38264;SDS011;24062;47.480;8.768;2023-04-12T14:48:20;3.57;;;0.80;;
38264;SDS011;24062;47.480;8.768;2023-04-12T14:50:47;1.57;;;0.60;;
38264;SDS011;24062;47.480;8.768;2023-04-12T14:53:16;2.10;;;0.83;;
38264;SDS011;24062;47.480;8.768;2023-04-12T14:55:44;1.70;;;0.77;;
38264;SDS011;24062;47.480;8.768;2023-04-12T14:58:12;2.17;;;0.70;;
38264;SDS011;24062;47.480;8.768;2023-04-12T15:00:39;1.30;;;0.53;;
38264;SDS011;24062;47.480;8.768;2023-04-12T15:03:06;1.77;;;0.70;;
38264;SDS011;24062;47.480;8.768;2023-04-12T15:05:34;2.70;;;0.70;;
38264;SDS011;24062;47.480;8.768;2023-04-12T15:08:01;1.30;;;0.70;;